createdAt,value
2018-09-24T00:02:04.875Z,99.90
2018-09-24T00:04:33.028Z,99.90
2018-09-24T00:07:01.170Z,99.90
2018-09-24T00:09:29.290Z,99.90
2018-09-24T00:11:57.488Z,99.90
2018-09-24T00:14:25.696Z,99.90
2018-09-24T00:16:53.917Z,99.90
2018-09-24T00:19:22.124Z,99.90
2018-09-24T00:21:50.314Z,99.90
2018-09-24T00:24:18.480Z,99.90
2018-09-24T00:26:46.649Z,99.90
2018-09-24T00:29:14.826Z,99.90
2018-09-24T00:31:42.982Z,99.90
2018-09-24T00:34:11.121Z,99.90
2018-09-24T00:36:39.307Z,99.90
2018-09-24T00:39:08.862Z,99.90
2018-09-24T00:41:37.348Z,99.90
2018-09-24T00:44:05.592Z,99.90
2018-09-24T00:46:33.733Z,99.90
2018-09-24T00:49:01.870Z,99.90
2018-09-24T00:51:30.090Z,99.90
2018-09-24T00:53:58.265Z,99.90
2018-09-24T00:56:26.554Z,99.90
2018-09-24T00:58:54.720Z,99.90
2018-09-24T01:01:22.870Z,99.90
2018-09-24T01:03:51.240Z,99.90
2018-09-24T01:06:19.390Z,99.90
2018-09-24T01:08:47.543Z,99.90
2018-09-24T01:11:15.665Z,99.90
2018-09-24T01:13:43.776Z,99.90
2018-09-24T01:16:11.950Z,99.90
2018-09-24T01:18:40.090Z,99.90
2018-09-24T01:21:08.220Z,99.90
2018-09-24T01:23:36.478Z,99.90
2018-09-24T01:26:04.761Z,99.90
2018-09-24T01:28:32.890Z,99.90
2018-09-24T01:31:01.139Z,99.90
2018-09-24T01:33:29.273Z,99.90
2018-09-24T01:35:57.406Z,99.90
2018-09-24T01:38:25.532Z,99.90
2018-09-24T01:40:53.642Z,99.90
2018-09-24T01:43:21.793Z,99.90
2018-09-24T01:45:49.962Z,99.90
2018-09-24T01:48:18.110Z,99.90
2018-09-24T01:50:46.678Z,99.90
2018-09-24T01:53:14.801Z,99.90
2018-09-24T01:55:47.824Z,99.90
2018-09-24T01:58:15.975Z,99.90
2018-09-24T02:00:44.090Z,99.90
2018-09-24T02:03:12.254Z,99.90
2018-09-24T02:05:40.443Z,99.90
2018-09-24T02:08:08.577Z,99.90
2018-09-24T02:10:36.747Z,99.90
2018-09-24T02:13:04.905Z,99.90
2018-09-24T02:15:33.716Z,99.90
2018-09-24T02:18:02.042Z,99.90
2018-09-24T02:20:30.180Z,99.90
2018-09-24T02:22:58.328Z,99.90
2018-09-24T02:25:26.500Z,99.90
2018-09-24T02:27:54.660Z,99.90
2018-09-24T02:30:22.818Z,99.90
2018-09-24T02:32:50.974Z,99.90
2018-09-24T02:35:19.120Z,99.90
2018-09-24T02:37:47.299Z,99.90
2018-09-24T02:40:22.678Z,99.90
2018-09-24T02:42:50.994Z,99.90
2018-09-24T02:45:19.357Z,99.90
2018-09-24T02:47:47.555Z,99.90
2018-09-24T02:50:15.759Z,99.90
2018-09-24T02:52:43.905Z,99.90
2018-09-24T02:55:16.020Z,99.90
2018-09-24T02:57:44.317Z,99.90
2018-09-24T03:00:14.324Z,99.90
2018-09-24T03:02:42.494Z,99.90
2018-09-24T03:05:10.635Z,99.90
2018-09-24T03:07:38.790Z,99.90
2018-09-24T03:10:06.949Z,99.90
2018-09-24T03:12:35.117Z,99.90
2018-09-24T03:15:03.275Z,99.90
2018-09-24T03:17:31.456Z,99.90
2018-09-24T03:19:59.610Z,99.90
2018-09-24T03:22:27.802Z,99.90
2018-09-24T03:24:55.982Z,99.90
2018-09-24T03:27:24.563Z,99.90
2018-09-24T03:29:52.710Z,99.90
2018-09-24T03:32:20.902Z,99.90
2018-09-24T03:34:49.050Z,99.90
2018-09-24T03:37:17.214Z,99.90
2018-09-24T03:39:45.382Z,99.90
2018-09-24T03:42:13.542Z,99.90
2018-09-24T03:44:41.696Z,99.90
2018-09-24T03:47:09.830Z,99.90
2018-09-24T03:49:37.988Z,99.90
2018-09-24T03:52:06.164Z,99.90
2018-09-24T03:54:34.350Z,99.90
2018-09-24T03:57:02.494Z,99.90
2018-09-24T03:59:30.682Z,99.90
2018-09-24T04:01:58.879Z,99.90
2018-09-24T04:04:32.261Z,99.90
2018-09-24T04:07:05.886Z,99.90
2018-09-24T04:09:39.554Z,99.90
2018-09-24T04:12:13.216Z,99.90
2018-09-24T04:14:46.800Z,99.90
2018-09-24T04:17:20.400Z,99.90
2018-09-24T04:19:53.943Z,99.90
2018-09-24T04:22:27.579Z,99.90
2018-09-24T04:25:01.204Z,99.90
2018-09-24T04:27:34.828Z,99.90
2018-09-24T04:30:08.557Z,99.90
2018-09-24T04:32:42.029Z,99.90
2018-09-24T04:35:15.438Z,99.90
2018-09-24T04:37:48.865Z,99.90
2018-09-24T04:40:22.530Z,99.90
2018-09-24T04:42:56.065Z,99.90
2018-09-24T04:45:29.696Z,99.90
2018-09-24T04:48:03.306Z,99.90
2018-09-24T04:50:37.036Z,99.90
2018-09-24T04:53:10.649Z,99.90
2018-09-24T04:55:44.330Z,99.90
2018-09-24T04:58:17.766Z,99.90
2018-09-24T05:00:51.454Z,99.90
2018-09-24T05:03:24.940Z,99.90
2018-09-24T05:05:58.656Z,99.90
2018-09-24T05:08:32.459Z,99.90
2018-09-24T05:11:06.126Z,99.90
2018-09-24T05:13:46.413Z,99.90
2018-09-24T05:16:20.197Z,99.90
2018-09-24T05:18:53.464Z,99.90
2018-09-24T05:21:27.087Z,99.90
2018-09-24T05:24:00.640Z,99.90
2018-09-24T05:26:34.247Z,99.90
2018-09-24T05:29:07.761Z,99.90
2018-09-24T05:31:41.361Z,99.90
2018-09-24T05:34:14.861Z,99.90
2018-09-24T05:36:48.413Z,99.90
2018-09-24T05:39:21.968Z,99.90
2018-09-24T05:41:55.766Z,99.90
2018-09-24T05:44:29.416Z,99.90
2018-09-24T05:47:03.350Z,99.90
2018-09-24T05:49:37.004Z,99.90
2018-09-24T05:52:10.618Z,99.90
2018-09-24T05:54:44.189Z,99.90
2018-09-24T05:57:17.839Z,99.90
2018-09-24T05:59:51.601Z,99.90
2018-09-24T06:02:28.353Z,99.90
2018-09-24T06:05:02.042Z,99.90
2018-09-24T06:07:35.450Z,99.90
2018-09-24T06:10:09.151Z,99.90
2018-09-24T06:12:42.740Z,99.90
2018-09-24T06:15:16.407Z,99.90
2018-09-24T06:17:50.108Z,99.90
2018-09-24T06:20:23.846Z,99.90
2018-09-24T06:22:57.317Z,99.90
2018-09-24T06:25:30.813Z,99.90
2018-09-24T06:28:04.478Z,99.90
2018-09-24T06:30:37.964Z,99.90
2018-09-24T06:33:11.644Z,99.90
2018-09-24T06:35:45.208Z,99.90
2018-09-24T06:38:18.816Z,99.90
2018-09-24T06:40:52.429Z,99.90
2018-09-24T06:43:26.054Z,99.90
2018-09-24T06:45:59.749Z,99.90
2018-09-24T06:48:33.416Z,99.90
2018-09-24T06:51:07.110Z,99.90
2018-09-24T06:53:40.593Z,99.90
2018-09-24T06:56:14.082Z,99.90
2018-09-24T06:58:47.844Z,99.90
2018-09-24T07:01:28.497Z,99.90
2018-09-24T07:04:02.261Z,99.90
2018-09-24T07:06:35.823Z,99.90
2018-09-24T07:09:11.078Z,99.90
2018-09-24T07:11:44.569Z,99.90
2018-09-24T07:14:18.250Z,99.90
2018-09-24T07:16:51.652Z,99.90
2018-09-24T07:19:25.292Z,99.90
2018-09-24T07:21:58.830Z,99.90
2018-09-24T07:24:32.274Z,99.90
2018-09-24T07:27:05.601Z,99.90
2018-09-24T07:29:38.979Z,99.90
2018-09-24T07:32:12.501Z,99.90
2018-09-24T07:34:46.042Z,99.10
2018-09-24T07:37:19.754Z,94.30
2018-09-24T07:39:53.345Z,78.60
2018-09-24T07:42:26.929Z,82.00
2018-09-24T07:45:00.565Z,75.70
2018-09-24T07:47:34.268Z,73.90
2018-09-24T07:50:08.014Z,79.40
2018-09-24T07:52:41.518Z,77.40
2018-09-24T07:55:15.900Z,77.20
2018-09-24T07:57:49.502Z,78.10
2018-09-24T08:00:23.128Z,79.50
2018-09-24T08:02:59.854Z,74.40
2018-09-24T08:05:33.293Z,41.30
2018-09-24T08:08:06.841Z,33.00
2018-09-24T08:10:40.492Z,31.90
2018-09-24T08:13:14.251Z,32.80
2018-09-24T08:15:47.663Z,36.20
2018-09-24T08:18:21.498Z,40.10
2018-09-24T08:20:54.907Z,38.20
2018-09-24T08:23:28.433Z,39.60
2018-09-24T08:26:02.001Z,47.50
2018-09-24T08:28:35.678Z,42.70
2018-09-24T08:31:09.601Z,39.80
2018-09-24T08:33:43.211Z,34.70
2018-09-24T08:36:16.661Z,26.40
2018-09-24T08:38:50.182Z,28.40
2018-09-24T08:41:23.810Z,21.70
2018-09-24T08:43:57.547Z,23.70
2018-09-24T08:46:31.625Z,23.30
2018-09-24T08:49:05.505Z,23.50
2018-09-24T08:51:39.156Z,25.60
2018-09-24T08:54:12.741Z,26.60
2018-09-24T08:56:46.471Z,26.60
2018-09-24T08:59:20.150Z,24.40
2018-09-24T09:01:53.640Z,25.80
2018-09-24T09:04:27.155Z,24.30
2018-09-24T09:07:00.866Z,24.60
2018-09-24T09:09:34.494Z,18.40
2018-09-24T09:12:08.227Z,14.30
2018-09-24T09:14:41.660Z,13.00
2018-09-24T09:17:18.717Z,12.20
2018-09-24T09:19:52.353Z,13.10
2018-09-24T09:22:25.760Z,13.70
2018-09-24T09:24:59.517Z,11.80
2018-09-24T09:27:32.903Z,11.40
2018-09-24T09:30:06.516Z,13.20
2018-09-24T09:32:40.282Z,10.90
2018-09-24T09:35:17.649Z,11.40
2018-09-24T09:37:51.415Z,12.80
2018-09-24T09:40:28.123Z,12.30
2018-09-24T09:43:01.792Z,15.00
2018-09-24T09:45:35.402Z,12.50
2018-09-24T09:48:09.109Z,11.60
2018-09-24T09:50:42.814Z,9.80
2018-09-24T09:53:16.493Z,11.30
2018-09-24T09:55:50.165Z,10.40
2018-09-24T09:58:23.899Z,4.50
2018-09-24T10:00:57.583Z,4.50
2018-09-24T10:03:31.255Z,6.50
2018-09-24T10:06:08.374Z,6.50
2018-09-24T10:08:41.984Z,3.80
2018-09-24T10:11:15.749Z,5.90
2018-09-24T10:13:49.440Z,9.20
2018-09-24T10:16:23.069Z,8.20
2018-09-24T10:19:02.559Z,5.00
2018-09-24T10:21:36.231Z,5.80
2018-09-24T10:24:09.968Z,4.20
2018-09-24T10:26:43.658Z,5.90
2018-09-24T10:29:17.242Z,4.90
2018-09-24T10:31:50.771Z,4.60
2018-09-24T10:34:24.413Z,5.00
2018-09-24T10:36:58.029Z,4.30
2018-09-24T10:39:31.715Z,6.80
2018-09-24T10:42:05.266Z,3.60
2018-09-24T10:44:38.841Z,5.00
2018-09-24T10:47:12.651Z,6.50
2018-09-24T10:49:46.247Z,4.50
2018-09-24T10:52:19.777Z,5.70
2018-09-24T10:54:53.334Z,5.70
2018-09-24T10:57:27.014Z,5.30
2018-09-24T11:00:00.734Z,9.30
2018-09-24T11:02:34.422Z,11.00
2018-09-24T11:05:08.363Z,8.70
2018-09-24T11:07:41.846Z,3.90
2018-09-24T11:10:15.533Z,3.70
2018-09-24T11:12:49.251Z,2.50
2018-09-24T11:15:22.641Z,1.00
2018-09-24T11:17:56.592Z,1.50
2018-09-24T11:20:30.099Z,1.00
2018-09-24T11:23:03.782Z,3.50
2018-09-24T11:25:37.472Z,1.00
2018-09-24T11:28:11.121Z,1.00
2018-09-24T11:30:44.806Z,1.00
2018-09-24T11:33:18.228Z,1.00
2018-09-24T11:35:51.953Z,1.00
2018-09-24T11:38:25.787Z,1.00
2018-09-24T11:40:59.487Z,1.00
2018-09-24T11:43:33.198Z,1.00
2018-09-24T11:46:07.033Z,1.00
2018-09-24T11:48:40.676Z,1.00
2018-09-24T11:51:14.225Z,1.00
2018-09-24T11:53:47.792Z,1.00
2018-09-24T11:56:21.457Z,1.00
2018-09-24T11:58:55.043Z,1.00
2018-09-24T12:01:28.536Z,1.00
2018-09-24T12:04:02.206Z,1.00
2018-09-24T12:06:35.776Z,2.20
2018-09-24T12:09:11.449Z,5.70
2018-09-24T12:11:44.963Z,10.50
2018-09-24T12:14:18.425Z,11.50
2018-09-24T12:16:52.136Z,14.10
2018-09-24T12:19:25.621Z,13.90
2018-09-24T12:21:59.359Z,17.30
2018-09-24T12:24:33.009Z,21.80
2018-09-24T12:27:07.617Z,20.40
2018-09-24T12:29:41.428Z,42.60
2018-09-24T12:32:14.837Z,43.90
2018-09-24T12:34:48.604Z,34.10
2018-09-24T12:37:22.226Z,33.60
2018-09-24T12:39:55.902Z,37.40
2018-09-24T12:42:29.330Z,47.60
2018-09-24T12:45:03.009Z,60.20
2018-09-24T12:47:36.436Z,56.00
2018-09-24T12:50:10.026Z,44.40
2018-09-24T12:52:43.777Z,42.70
2018-09-24T12:55:17.486Z,46.20
2018-09-24T12:57:51.234Z,48.90
2018-09-24T13:00:24.936Z,39.60
2018-09-24T13:02:58.569Z,20.60
2018-09-24T13:05:32.306Z,16.50
2018-09-24T13:08:05.966Z,17.90
2018-09-24T13:10:39.643Z,15.40
2018-09-24T13:13:13.050Z,13.10
2018-09-24T13:15:46.709Z,10.90
2018-09-24T13:18:20.277Z,12.00
2018-09-24T13:20:53.963Z,12.30
2018-09-24T13:23:27.646Z,8.70
2018-09-24T13:26:01.154Z,3.60
2018-09-24T13:28:34.782Z,4.20
2018-09-24T13:31:08.601Z,5.50
2018-09-24T13:33:42.010Z,5.60
2018-09-24T13:36:15.685Z,7.30
2018-09-24T13:38:49.423Z,8.30
2018-09-24T13:41:23.146Z,8.40
2018-09-24T13:43:56.787Z,8.30
2018-09-24T13:46:30.535Z,10.20
2018-09-24T13:49:04.126Z,10.40
2018-09-24T13:51:40.914Z,16.40
2018-09-24T13:54:14.268Z,18.10
2018-09-24T13:56:47.844Z,31.40
2018-09-24T13:59:21.552Z,36.50
2018-09-24T14:01:55.172Z,55.90
2018-09-24T14:04:28.849Z,61.90
2018-09-24T14:07:02.496Z,29.60
2018-09-24T14:09:36.163Z,31.30
2018-09-24T14:12:09.756Z,31.20
2018-09-24T14:14:43.458Z,30.90
2018-09-24T14:17:17.065Z,30.60
2018-09-24T14:19:50.458Z,33.20
2018-09-24T14:22:24.131Z,34.60
2018-09-24T14:24:57.773Z,32.40
2018-09-24T14:27:31.333Z,31.80
2018-09-24T14:30:04.837Z,29.50
2018-09-24T14:32:38.432Z,31.40
2018-09-24T14:35:12.399Z,30.60
2018-09-24T14:37:45.747Z,31.10
2018-09-24T14:40:19.382Z,31.30
2018-09-24T14:42:52.920Z,30.50
2018-09-24T14:45:26.542Z,30.20
2018-09-24T14:47:59.870Z,28.90
2018-09-24T14:50:33.493Z,25.30
2018-09-24T14:53:06.868Z,26.70
2018-09-24T14:55:40.508Z,29.70
2018-09-24T14:58:14.138Z,23.00
2018-09-24T15:00:47.590Z,24.10
2018-09-24T15:03:20.971Z,15.10
2018-09-24T15:05:54.602Z,16.10
2018-09-24T15:08:28.245Z,12.10
2018-09-24T15:11:01.965Z,10.90
2018-09-24T15:13:35.734Z,12.20
2018-09-24T15:16:09.415Z,17.00
2018-09-24T15:18:43.017Z,29.50
2018-09-24T15:21:16.565Z,34.40
2018-09-24T15:23:50.256Z,50.80
2018-09-24T15:26:23.906Z,52.30
2018-09-24T15:28:57.438Z,53.60
2018-09-24T15:31:31.068Z,59.30
2018-09-24T15:34:04.709Z,72.50
2018-09-24T15:36:38.046Z,93.70
2018-09-24T15:39:12.002Z,92.80
2018-09-24T15:41:45.642Z,90.80
2018-09-24T15:44:19.134Z,90.90
2018-09-24T15:46:52.658Z,90.20
2018-09-24T15:49:26.246Z,92.10
2018-09-24T15:51:59.907Z,91.60
2018-09-24T15:54:33.486Z,84.70
2018-09-24T15:57:06.982Z,82.30
2018-09-24T15:59:40.613Z,76.30
2018-09-24T16:02:14.156Z,77.10
2018-09-24T16:04:47.782Z,77.40
2018-09-24T16:07:21.206Z,77.80
2018-09-24T16:09:54.774Z,78.30
2018-09-24T16:12:28.487Z,83.20
2018-09-24T16:15:02.090Z,84.40
2018-09-24T16:17:35.771Z,85.80
2018-09-24T16:20:09.516Z,86.30
2018-09-24T16:22:43.197Z,85.20
2018-09-24T16:25:17.645Z,88.40
2018-09-24T16:28:04.141Z,90.50
2018-09-24T16:30:43.755Z,91.70
2018-09-24T16:33:22.303Z,93.20
2018-09-24T16:35:58.321Z,98.00
2018-09-24T16:38:34.182Z,98.70
2018-09-24T16:41:14.169Z,99.90
2018-09-24T16:43:50.840Z,99.90
2018-09-24T16:46:31.297Z,99.90
2018-09-24T16:49:12.167Z,99.90
2018-09-24T16:51:58.324Z,99.90
2018-09-24T16:54:36.932Z,99.90
2018-09-24T16:57:29.349Z,99.90
2018-09-24T17:00:15.585Z,99.90
2018-09-24T17:02:51.885Z,99.90
2018-09-24T17:05:39.921Z,99.90
2018-09-24T17:08:15.568Z,99.90
2018-09-24T17:10:52.863Z,99.90
2018-09-24T17:13:28.881Z,99.90
2018-09-24T17:16:03.257Z,99.90
2018-09-24T17:18:38.351Z,99.90
2018-09-24T17:21:19.295Z,99.90
2018-09-24T17:23:54.052Z,99.90
2018-09-24T17:26:28.751Z,99.90
2018-09-24T17:29:03.743Z,99.90
2018-09-24T17:31:44.609Z,99.90
2018-09-24T17:34:18.571Z,99.90
2018-09-24T17:36:53.671Z,99.90
2018-09-24T17:39:28.400Z,99.90
2018-09-24T17:42:02.919Z,99.90
2018-09-24T17:44:43.393Z,99.90
2018-09-24T17:47:19.846Z,99.90
2018-09-24T17:49:57.230Z,99.90
2018-09-24T17:52:31.339Z,99.90
2018-09-24T17:55:07.014Z,99.90
2018-09-24T17:57:42.773Z,99.90
2018-09-24T18:00:17.143Z,99.90
2018-09-24T18:02:51.497Z,99.90
2018-09-24T18:05:27.921Z,99.90
2018-09-24T18:08:01.738Z,99.90
2018-09-24T18:10:35.617Z,99.90
2018-09-24T18:13:10.429Z,99.90
2018-09-24T18:15:44.347Z,99.90
2018-09-24T18:18:17.915Z,99.90
2018-09-24T18:20:51.888Z,99.90
2018-09-24T18:23:25.655Z,99.90
2018-09-24T18:25:59.322Z,99.90
2018-09-24T18:28:33.056Z,99.90
2018-09-24T18:31:06.589Z,99.90
2018-09-24T18:33:40.209Z,99.90
2018-09-24T18:36:13.881Z,99.90
2018-09-24T18:38:52.061Z,99.90
2018-09-24T18:41:27.992Z,99.90
2018-09-24T18:44:05.668Z,99.90
2018-09-24T18:46:59.570Z,99.90
2018-09-24T18:49:47.346Z,99.90
2018-09-24T18:52:40.491Z,99.90
2018-09-24T18:55:33.080Z,99.90
2018-09-24T18:58:25.539Z,99.90
2018-09-24T19:01:10.902Z,99.90
2018-09-24T19:03:46.848Z,99.90
2018-09-24T19:06:27.412Z,99.90
2018-09-24T19:09:13.094Z,99.90
2018-09-24T19:12:07.534Z,99.90
2018-09-24T19:14:48.754Z,99.90
2018-09-24T19:17:24.570Z,99.90
2018-09-24T19:20:12.225Z,99.90
2018-09-24T19:22:59.549Z,99.90
2018-09-24T19:25:45.629Z,99.90
2018-09-24T19:28:25.553Z,99.90
2018-09-24T19:31:08.427Z,99.90
2018-09-24T19:33:52.062Z,99.90
2018-09-24T19:36:33.476Z,99.90
2018-09-24T19:39:19.769Z,99.90
2018-09-24T19:42:06.027Z,99.90
2018-09-24T19:44:51.474Z,99.90
2018-09-24T19:47:35.157Z,99.90
2018-09-24T19:50:21.505Z,99.90
2018-09-24T19:53:05.077Z,99.90
2018-09-24T19:55:57.317Z,99.90
2018-09-24T19:58:43.738Z,99.90
2018-09-24T20:01:30.780Z,99.90
2018-09-24T20:04:19.429Z,99.90
2018-09-24T20:18:53.986Z,99.90
2018-09-24T20:27:37.509Z,99.90
2018-09-24T20:33:16.446Z,99.90
2018-09-24T20:36:10.979Z,99.90
2018-09-24T20:39:08.644Z,99.90
2018-09-24T20:42:08.818Z,99.90
2018-09-24T20:45:12.401Z,99.90
2018-09-24T20:51:03.030Z,99.90
2018-09-24T20:59:34.147Z,99.90
2018-09-24T21:02:13.030Z,99.90
2018-09-24T21:04:50.103Z,99.90
2018-09-24T21:07:33.481Z,99.90
2018-09-24T21:10:23.349Z,99.90
2018-09-24T21:16:13.456Z,99.90
2018-09-24T21:21:43.610Z,99.90
2018-09-24T21:24:26.692Z,99.90
2018-09-24T21:27:03.943Z,99.90
2018-09-24T21:29:49.824Z,99.90
2018-09-24T21:32:37.290Z,99.90
2018-09-24T21:35:14.801Z,99.90
2018-09-24T21:37:56.085Z,99.90
2018-09-24T21:40:41.540Z,99.90
2018-09-24T21:46:28.050Z,99.90
2018-09-24T21:49:23.906Z,99.90
2018-09-24T21:52:16.078Z,99.90
2018-09-24T21:55:09.004Z,99.90
2018-09-24T21:57:56.207Z,99.90
2018-09-24T22:00:36.703Z,99.90
2018-09-24T22:03:20.208Z,99.90
2018-09-24T22:06:05.474Z,99.90
2018-09-24T22:08:48.320Z,99.90
2018-09-24T22:11:32.805Z,99.90
2018-09-24T22:17:18.647Z,99.90
2018-09-24T22:20:02.573Z,99.90
2018-09-24T22:25:36.223Z,99.90
2018-09-24T22:28:22.866Z,99.90
2018-09-24T22:31:06.230Z,99.90
2018-09-24T22:33:54.685Z,99.90
2018-09-24T22:36:30.457Z,99.90
2018-09-24T22:39:06.116Z,99.90
2018-09-24T22:41:55.838Z,99.90
2018-09-24T22:44:36.358Z,99.90
2018-09-24T22:47:16.006Z,99.90
2018-09-24T22:50:02.016Z,99.90
2018-09-24T22:52:41.389Z,99.90
2018-09-24T22:55:25.075Z,99.90
2018-09-24T22:58:08.866Z,99.90
2018-09-24T23:00:59.872Z,99.90
2018-09-24T23:03:42.005Z,99.90
2018-09-24T23:06:15.733Z,99.90
2018-09-24T23:08:53.929Z,99.90
2018-09-24T23:14:23.310Z,99.90
2018-09-24T23:22:47.237Z,99.90
2018-09-24T23:25:30.665Z,99.90
2018-09-24T23:28:11.075Z,99.90
2018-09-24T23:30:52.774Z,99.90
2018-09-24T23:33:45.739Z,99.90
2018-09-24T23:36:21.587Z,99.90
2018-09-24T23:38:59.633Z,99.90
2018-09-24T23:41:34.415Z,99.90
2018-09-24T23:44:10.138Z,99.90
2018-09-24T23:46:56.533Z,99.90
2018-09-24T23:49:43.145Z,99.90
2018-09-24T23:52:24.164Z,99.90
2018-09-24T23:58:05.031Z,99.90
